sensor_id;sensor_type;location;lat;lon;timestamp;temperature;humidity
11474;DHT22;5793;52.238;13.438;2023-07-13T00:00:03;16.90;99.90
11474;DHT22;5793;52.238;13.438;2023-07-13T00:02:34;16.90;99.90
11474;DHT22;5793;52.238;13.438;2023-07-13T00:05:02;16.90;99.90
11474;DHT22;5793;52.238;13.438;2023-07-13T00:07:30;17.00;99.90
11474;DHT22;5793;52.238;13.438;2023-07-13T00:09:59;17.00;99.90
11474;DHT22;5793;52.238;13.438;2023-07-13T00:12:29;16.90;99.90
11474;DHT22;5793;52.238;13.438;2023-07-13T00:15:00;16.80;99.90
11474;DHT22;5793;52.238;13.438;2023-07-13T00:17:28;16.70;99.90
11474;DHT22;5793;52.238;13.438;2023-07-13T00:19:57;16.70;99.90
11474;DHT22;5793;52.238;13.438;2023-07-13T00:22:25;16.70;99.90
11474;DHT22;5793;52.238;13.438;2023-07-13T00:24:53;16.60;99.90
11474;DHT22;5793;52.238;13.438;2023-07-13T00:27:23;16.60;99.90
11474;DHT22;5793;52.238;13.438;2023-07-13T00:29:52;16.60;99.90
11474;DHT22;5793;52.238;13.438;2023-07-13T00:32:21;16.60;99.90
11474;DHT22;5793;52.238;13.438;2023-07-13T00:34:51;16.70;99.90
11474;DHT22;5793;52.238;13.438;2023-07-13T00:37:19;16.70;99.90
11474;DHT22;5793;52.238;13.438;2023-07-13T00:39:47;16.70;99.90
11474;DHT22;5793;52.238;13.438;2023-07-13T00:42:15;16.60;99.90
11474;DHT22;5793;52.238;13.438;2023-07-13T00:45:01;16.60;99.90
11474;DHT22;5793;52.238;13.438;2023-07-13T00:47:31;16.50;99.90
11474;DHT22;5793;52.238;13.438;2023-07-13T00:49:59;16.50;99.90
11474;DHT22;5793;52.238;13.438;2023-07-13T00:52:27;16.40;99.90
11474;DHT22;5793;52.238;13.438;2023-07-13T00:54:56;16.30;99.90
11474;DHT22;5793;52.238;13.438;2023-07-13T00:57:24;16.20;99.90
11474;DHT22;5793;52.238;13.438;2023-07-13T00:59:54;16.20;99.90
11474;DHT22;5793;52.238;13.438;2023-07-13T01:02:24;16.10;99.90
11474;DHT22;5793;52.238;13.438;2023-07-13T01:04:53;16.00;99.90
11474;DHT22;5793;52.238;13.438;2023-07-13T01:07:21;16.00;99.90
11474;DHT22;5793;52.238;13.438;2023-07-13T01:09:49;15.90;99.90
11474;DHT22;5793;52.238;13.438;2023-07-13T01:12:17;15.80;99.90
11474;DHT22;5793;52.238;13.438;2023-07-13T01:14:45;15.80;99.90
11474;DHT22;5793;52.238;13.438;2023-07-13T01:17:13;15.80;99.90
11474;DHT22;5793;52.238;13.438;2023-07-13T01:19:43;16.00;99.90
11474;DHT22;5793;52.238;13.438;2023-07-13T01:22:14;16.10;99.90
11474;DHT22;5793;52.238;13.438;2023-07-13T01:24:45;16.10;99.90
11474;DHT22;5793;52.238;13.438;2023-07-13T01:27:16;16.10;99.90
11474;DHT22;5793;52.238;13.438;2023-07-13T01:29:45;16.20;99.90
11474;DHT22;5793;52.238;13.438;2023-07-13T01:32:16;16.20;99.90
11474;DHT22;5793;52.238;13.438;2023-07-13T01:34:50;16.30;99.90
11474;DHT22;5793;52.238;13.438;2023-07-13T01:37:23;16.40;99.90
11474;DHT22;5793;52.238;13.438;2023-07-13T01:39:51;16.40;99.90
11474;DHT22;5793;52.238;13.438;2023-07-13T01:42:19;16.40;99.90
11474;DHT22;5793;52.238;13.438;2023-07-13T01:44:47;16.30;99.90
11474;DHT22;5793;52.238;13.438;2023-07-13T01:47:15;16.20;99.90
11474;DHT22;5793;52.238;13.438;2023-07-13T01:49:42;16.10;99.90
11474;DHT22;5793;52.238;13.438;2023-07-13T01:52:12;16.00;99.90
11474;DHT22;5793;52.238;13.438;2023-07-13T01:54:41;16.00;99.90
11474;DHT22;5793;52.238;13.438;2023-07-13T01:57:09;15.80;99.90
11474;DHT22;5793;52.238;13.438;2023-07-13T01:59:37;15.90;99.90
11474;DHT22;5793;52.238;13.438;2023-07-13T02:02:05;15.80;99.90
11474;DHT22;5793;52.238;13.438;2023-07-13T02:04:33;15.80;99.90
11474;DHT22;5793;52.238;13.438;2023-07-13T02:07:01;15.70;99.90
11474;DHT22;5793;52.238;13.438;2023-07-13T02:09:28;15.70;99.90
11474;DHT22;5793;52.238;13.438;2023-07-13T02:11:59;15.80;99.90
11474;DHT22;5793;52.238;13.438;2023-07-13T02:14:27;15.80;99.90
11474;DHT22;5793;52.238;13.438;2023-07-13T02:16:54;15.70;99.90
11474;DHT22;5793;52.238;13.438;2023-07-13T02:19:22;15.60;99.90
11474;DHT22;5793;52.238;13.438;2023-07-13T02:21:50;15.60;99.90
11474;DHT22;5793;52.238;13.438;2023-07-13T02:24:18;15.50;99.90
11474;DHT22;5793;52.238;13.438;2023-07-13T02:26:47;15.30;99.90
11474;DHT22;5793;52.238;13.438;2023-07-13T02:29:16;15.20;99.90
11474;DHT22;5793;52.238;13.438;2023-07-13T02:31:44;15.00;99.90
11474;DHT22;5793;52.238;13.438;2023-07-13T02:34:12;14.90;99.90
11474;DHT22;5793;52.238;13.438;2023-07-13T02:36:40;14.70;99.90
11474;DHT22;5793;52.238;13.438;2023-07-13T02:39:09;14.60;99.90
11474;DHT22;5793;52.238;13.438;2023-07-13T02:41:38;14.60;99.90
11474;DHT22;5793;52.238;13.438;2023-07-13T02:44:06;14.60;99.90
11474;DHT22;5793;52.238;13.438;2023-07-13T02:46:37;14.70;99.90
11474;DHT22;5793;52.238;13.438;2023-07-13T02:49:05;14.70;99.90
11474;DHT22;5793;52.238;13.438;2023-07-13T02:51:33;14.70;99.90
11474;DHT22;5793;52.238;13.438;2023-07-13T02:54:01;14.70;99.90
11474;DHT22;5793;52.238;13.438;2023-07-13T02:56:30;14.80;99.90
11474;DHT22;5793;52.238;13.438;2023-07-13T02:58:59;14.70;99.90
11474;DHT22;5793;52.238;13.438;2023-07-13T03:01:26;14.60;99.90
11474;DHT22;5793;52.238;13.438;2023-07-13T03:03:56;14.70;99.90
11474;DHT22;5793;52.238;13.438;2023-07-13T03:06:24;14.60;99.90
11474;DHT22;5793;52.238;13.438;2023-07-13T03:08:51;14.60;99.90
11474;DHT22;5793;52.238;13.438;2023-07-13T03:11:20;14.50;99.90
11474;DHT22;5793;52.238;13.438;2023-07-13T03:13:48;14.40;99.90
11474;DHT22;5793;52.238;13.438;2023-07-13T03:16:16;14.30;99.90
11474;DHT22;5793;52.238;13.438;2023-07-13T03:18:45;14.20;99.90
11474;DHT22;5793;52.238;13.438;2023-07-13T03:21:15;14.20;99.90
11474;DHT22;5793;52.238;13.438;2023-07-13T03:23:43;14.20;99.90
11474;DHT22;5793;52.238;13.438;2023-07-13T03:26:14;14.20;99.90
11474;DHT22;5793;52.238;13.438;2023-07-13T03:28:42;14.10;99.90
11474;DHT22;5793;52.238;13.438;2023-07-13T03:31:13;14.10;99.90
11474;DHT22;5793;52.238;13.438;2023-07-13T03:33:41;14.10;99.90
11474;DHT22;5793;52.238;13.438;2023-07-13T03:36:17;14.10;99.90
11474;DHT22;5793;52.238;13.438;2023-07-13T03:38:47;14.00;99.90
11474;DHT22;5793;52.238;13.438;2023-07-13T03:41:15;14.10;99.90
11474;DHT22;5793;52.238;13.438;2023-07-13T03:43:43;14.20;99.90
11474;DHT22;5793;52.238;13.438;2023-07-13T03:46:11;14.20;99.90
11474;DHT22;5793;52.238;13.438;2023-07-13T03:48:40;14.30;99.90
11474;DHT22;5793;52.238;13.438;2023-07-13T03:51:09;14.40;99.90
11474;DHT22;5793;52.238;13.438;2023-07-13T03:53:40;14.30;99.90
11474;DHT22;5793;52.238;13.438;2023-07-13T03:56:09;14.30;99.90
11474;DHT22;5793;52.238;13.438;2023-07-13T03:58:39;14.30;99.90
11474;DHT22;5793;52.238;13.438;2023-07-13T04:01:09;14.30;99.90
11474;DHT22;5793;52.238;13.438;2023-07-13T04:03:37;14.30;99.90
11474;DHT22;5793;52.238;13.438;2023-07-13T04:06:07;14.30;99.90
11474;DHT22;5793;52.238;13.438;2023-07-13T04:08:36;14.30;99.90
11474;DHT22;5793;52.238;13.438;2023-07-13T04:11:07;14.40;99.90
11474;DHT22;5793;52.238;13.438;2023-07-13T04:13:34;14.50;99.90
11474;DHT22;5793;52.238;13.438;2023-07-13T04:16:02;14.60;99.90
11474;DHT22;5793;52.238;13.438;2023-07-13T04:18:30;14.80;99.90
11474;DHT22;5793;52.238;13.438;2023-07-13T04:20:58;14.90;99.90
11474;DHT22;5793;52.238;13.438;2023-07-13T04:23:26;15.00;99.90
11474;DHT22;5793;52.238;13.438;2023-07-13T04:25:54;15.10;99.90
11474;DHT22;5793;52.238;13.438;2023-07-13T04:28:25;15.10;99.90
11474;DHT22;5793;52.238;13.438;2023-07-13T04:30:53;15.10;99.90
11474;DHT22;5793;52.238;13.438;2023-07-13T04:33:20;15.00;99.90
11474;DHT22;5793;52.238;13.438;2023-07-13T04:35:50;15.00;99.90
11474;DHT22;5793;52.238;13.438;2023-07-13T04:38:21;15.00;99.90
11474;DHT22;5793;52.238;13.438;2023-07-13T04:40:49;15.00;99.90
11474;DHT22;5793;52.238;13.438;2023-07-13T04:43:16;15.00;99.90
11474;DHT22;5793;52.238;13.438;2023-07-13T04:45:46;15.20;99.90
11474;DHT22;5793;52.238;13.438;2023-07-13T04:48:13;15.30;99.90
11474;DHT22;5793;52.238;13.438;2023-07-13T04:50:41;15.30;99.90
11474;DHT22;5793;52.238;13.438;2023-07-13T04:53:09;15.40;99.90
11474;DHT22;5793;52.238;13.438;2023-07-13T04:55:38;15.40;99.90
11474;DHT22;5793;52.238;13.438;2023-07-13T04:58:06;15.40;99.90
11474;DHT22;5793;52.238;13.438;2023-07-13T05:00:34;15.40;99.90
11474;DHT22;5793;52.238;13.438;2023-07-13T05:03:03;15.50;99.90
11474;DHT22;5793;52.238;13.438;2023-07-13T05:05:31;15.50;99.90
11474;DHT22;5793;52.238;13.438;2023-07-13T05:07:59;15.50;99.90
11474;DHT22;5793;52.238;13.438;2023-07-13T05:10:28;15.60;99.90
11474;DHT22;5793;52.238;13.438;2023-07-13T05:12:56;15.70;99.90
11474;DHT22;5793;52.238;13.438;2023-07-13T05:15:23;15.80;99.90
11474;DHT22;5793;52.238;13.438;2023-07-13T05:17:52;15.90;99.90
11474;DHT22;5793;52.238;13.438;2023-07-13T05:20:21;15.90;99.90
11474;DHT22;5793;52.238;13.438;2023-07-13T05:22:49;16.10;99.90
11474;DHT22;5793;52.238;13.438;2023-07-13T05:25:17;16.20;99.90
11474;DHT22;5793;52.238;13.438;2023-07-13T05:27:45;16.30;99.90
11474;DHT22;5793;52.238;13.438;2023-07-13T05:30:14;16.40;99.90
11474;DHT22;5793;52.238;13.438;2023-07-13T05:32:42;16.50;99.90
11474;DHT22;5793;52.238;13.438;2023-07-13T05:35:09;16.60;99.90
11474;DHT22;5793;52.238;13.438;2023-07-13T05:37:39;16.80;99.90
11474;DHT22;5793;52.238;13.438;2023-07-13T05:40:07;16.90;99.90
11474;DHT22;5793;52.238;13.438;2023-07-13T05:42:35;17.10;99.90
11474;DHT22;5793;52.238;13.438;2023-07-13T05:45:03;17.20;99.90
11474;DHT22;5793;52.238;13.438;2023-07-13T05:47:31;17.40;99.90
11474;DHT22;5793;52.238;13.438;2023-07-13T05:49:59;17.60;99.90
11474;DHT22;5793;52.238;13.438;2023-07-13T05:52:31;17.80;99.90
11474;DHT22;5793;52.238;13.438;2023-07-13T05:55:00;17.90;99.90
11474;DHT22;5793;52.238;13.438;2023-07-13T05:57:30;18.00;99.90
11474;DHT22;5793;52.238;13.438;2023-07-13T05:59:58;18.10;99.90
11474;DHT22;5793;52.238;13.438;2023-07-13T06:02:27;18.20;99.90
11474;DHT22;5793;52.238;13.438;2023-07-13T06:04:55;18.20;99.90
11474;DHT22;5793;52.238;13.438;2023-07-13T06:07:23;18.40;99.90
11474;DHT22;5793;52.238;13.438;2023-07-13T06:09:51;18.50;99.90
11474;DHT22;5793;52.238;13.438;2023-07-13T06:12:20;18.70;99.90
11474;DHT22;5793;52.238;13.438;2023-07-13T06:14:47;18.80;99.90
11474;DHT22;5793;52.238;13.438;2023-07-13T06:17:15;18.90;99.90
11474;DHT22;5793;52.238;13.438;2023-07-13T06:19:43;18.90;99.90
11474;DHT22;5793;52.238;13.438;2023-07-13T06:22:11;19.00;99.90
11474;DHT22;5793;52.238;13.438;2023-07-13T06:24:39;19.10;99.90
11474;DHT22;5793;52.238;13.438;2023-07-13T06:27:07;19.20;99.90
11474;DHT22;5793;52.238;13.438;2023-07-13T06:29:36;19.30;99.90
11474;DHT22;5793;52.238;13.438;2023-07-13T06:32:05;19.40;99.90
11474;DHT22;5793;52.238;13.438;2023-07-13T06:34:33;19.50;99.90
11474;DHT22;5793;52.238;13.438;2023-07-13T06:37:00;19.60;99.90
11474;DHT22;5793;52.238;13.438;2023-07-13T06:39:28;19.70;99.90
11474;DHT22;5793;52.238;13.438;2023-07-13T06:41:56;19.80;99.90
11474;DHT22;5793;52.238;13.438;2023-07-13T06:44:24;19.90;99.90
11474;DHT22;5793;52.238;13.438;2023-07-13T06:46:53;20.00;99.90
11474;DHT22;5793;52.238;13.438;2023-07-13T06:49:21;20.10;99.90
11474;DHT22;5793;52.238;13.438;2023-07-13T06:51:48;20.20;99.90
11474;DHT22;5793;52.238;13.438;2023-07-13T06:54:16;20.30;99.90
11474;DHT22;5793;52.238;13.438;2023-07-13T06:56:44;20.40;99.90
11474;DHT22;5793;52.238;13.438;2023-07-13T06:59:13;20.60;99.90
11474;DHT22;5793;52.238;13.438;2023-07-13T07:01:40;20.60;99.90
11474;DHT22;5793;52.238;13.438;2023-07-13T07:04:10;20.80;99.90
11474;DHT22;5793;52.238;13.438;2023-07-13T07:06:38;20.80;99.90
11474;DHT22;5793;52.238;13.438;2023-07-13T07:09:05;20.90;99.90
11474;DHT22;5793;52.238;13.438;2023-07-13T07:11:33;21.00;99.90
11474;DHT22;5793;52.238;13.438;2023-07-13T07:14:02;21.10;99.90
11474;DHT22;5793;52.238;13.438;2023-07-13T07:16:30;21.20;99.90
11474;DHT22;5793;52.238;13.438;2023-07-13T07:18:57;21.40;99.90
11474;DHT22;5793;52.238;13.438;2023-07-13T07:21:27;21.40;99.90
11474;DHT22;5793;52.238;13.438;2023-07-13T07:23:54;21.60;99.90
11474;DHT22;5793;52.238;13.438;2023-07-13T07:26:22;21.70;99.90
11474;DHT22;5793;52.238;13.438;2023-07-13T07:28:53;21.80;99.90
11474;DHT22;5793;52.238;13.438;2023-07-13T07:31:41;21.80;99.90
11474;DHT22;5793;52.238;13.438;2023-07-13T07:34:12;21.90;99.90
11474;DHT22;5793;52.238;13.438;2023-07-13T07:36:41;22.00;99.90
11474;DHT22;5793;52.238;13.438;2023-07-13T07:39:11;22.10;99.90
11474;DHT22;5793;52.238;13.438;2023-07-13T07:41:39;22.10;99.90
11474;DHT22;5793;52.238;13.438;2023-07-13T07:44:10;22.20;99.90
11474;DHT22;5793;52.238;13.438;2023-07-13T07:46:39;22.40;99.90
11474;DHT22;5793;52.238;13.438;2023-07-13T07:49:07;22.50;99.90
11474;DHT22;5793;52.238;13.438;2023-07-13T07:51:35;22.70;99.90
11474;DHT22;5793;52.238;13.438;2023-07-13T07:54:05;22.80;99.90
11474;DHT22;5793;52.238;13.438;2023-07-13T07:56:33;22.90;99.90
11474;DHT22;5793;52.238;13.438;2023-07-13T07:59:04;23.00;99.90
11474;DHT22;5793;52.238;13.438;2023-07-13T08:01:34;23.00;99.90
11474;DHT22;5793;52.238;13.438;2023-07-13T08:04:05;23.10;99.90
11474;DHT22;5793;52.238;13.438;2023-07-13T08:06:36;23.30;99.90
11474;DHT22;5793;52.238;13.438;2023-07-13T08:09:08;23.40;99.90
11474;DHT22;5793;52.238;13.438;2023-07-13T08:11:36;23.50;99.90
11474;DHT22;5793;52.238;13.438;2023-07-13T08:14:06;23.60;99.90
11474;DHT22;5793;52.238;13.438;2023-07-13T08:16:36;23.70;99.90
11474;DHT22;5793;52.238;13.438;2023-07-13T08:19:04;23.70;99.90
11474;DHT22;5793;52.238;13.438;2023-07-13T08:21:32;23.70;99.90
11474;DHT22;5793;52.238;13.438;2023-07-13T08:24:00;23.90;99.90
11474;DHT22;5793;52.238;13.438;2023-07-13T08:26:29;24.20;99.90
11474;DHT22;5793;52.238;13.438;2023-07-13T08:28:57;24.40;99.90
11474;DHT22;5793;52.238;13.438;2023-07-13T08:31:25;24.60;99.90
11474;DHT22;5793;52.238;13.438;2023-07-13T08:33:52;24.80;99.90
11474;DHT22;5793;52.238;13.438;2023-07-13T08:36:20;24.90;99.90
11474;DHT22;5793;52.238;13.438;2023-07-13T08:38:48;25.20;99.90
11474;DHT22;5793;52.238;13.438;2023-07-13T08:41:17;25.30;99.90
11474;DHT22;5793;52.238;13.438;2023-07-13T08:43:49;25.20;99.90
11474;DHT22;5793;52.238;13.438;2023-07-13T08:46:20;25.50;99.90
11474;DHT22;5793;52.238;13.438;2023-07-13T08:48:57;25.80;99.90
11474;DHT22;5793;52.238;13.438;2023-07-13T08:51:35;26.40;99.90
11474;DHT22;5793;52.238;13.438;2023-07-13T08:54:10;27.10;99.90
11474;DHT22;5793;52.238;13.438;2023-07-13T08:56:40;27.20;98.80
11474;DHT22;5793;52.238;13.438;2023-07-13T08:59:13;28.70;94.10
11474;DHT22;5793;52.238;13.438;2023-07-13T09:01:52;31.40;82.90
11474;DHT22;5793;52.238;13.438;2023-07-13T09:04:24;33.70;71.60
11474;DHT22;5793;52.238;13.438;2023-07-13T09:07:01;34.80;63.60
11474;DHT22;5793;52.238;13.438;2023-07-13T09:09:39;33.00;64.50
11474;DHT22;5793;52.238;13.438;2023-07-13T09:12:16;32.00;65.10
11474;DHT22;5793;52.238;13.438;2023-07-13T09:14:48;32.90;63.30
11474;DHT22;5793;52.238;13.438;2023-07-13T09:17:20;35.00;57.60
11474;DHT22;5793;52.238;13.438;2023-07-13T09:19:55;35.20;57.30
11474;DHT22;5793;52.238;13.438;2023-07-13T09:22:26;32.50;59.50
11474;DHT22;5793;52.238;13.438;2023-07-13T09:25:00;32.90;59.30
11474;DHT22;5793;52.238;13.438;2023-07-13T09:27:33;35.00;56.80
11474;DHT22;5793;52.238;13.438;2023-07-13T09:30:21;33.70;57.20
11474;DHT22;5793;52.238;13.438;2023-07-13T09:32:52;30.80;62.50
11474;DHT22;5793;52.238;13.438;2023-07-13T09:35:25;29.70;63.40
11474;DHT22;5793;52.238;13.438;2023-07-13T09:37:58;28.70;68.60
11474;DHT22;5793;52.238;13.438;2023-07-13T09:40:36;27.50;69.90
11474;DHT22;5793;52.238;13.438;2023-07-13T09:43:10;26.80;72.10
11474;DHT22;5793;52.238;13.438;2023-07-13T09:45:40;26.10;73.80
11474;DHT22;5793;52.238;13.438;2023-07-13T09:48:12;25.60;75.00
11474;DHT22;5793;52.238;13.438;2023-07-13T09:50:41;25.00;76.10
11474;DHT22;5793;52.238;13.438;2023-07-13T09:53:12;24.70;76.60
11474;DHT22;5793;52.238;13.438;2023-07-13T09:55:44;24.60;78.00
11474;DHT22;5793;52.238;13.438;2023-07-13T09:58:17;24.90;78.30
11474;DHT22;5793;52.238;13.438;2023-07-13T10:00:57;24.80;80.00
11474;DHT22;5793;52.238;13.438;2023-07-13T10:03:27;24.50;82.10
11474;DHT22;5793;52.238;13.438;2023-07-13T10:06:09;24.30;81.70
11474;DHT22;5793;52.238;13.438;2023-07-13T10:08:38;24.30;84.50
11474;DHT22;5793;52.238;13.438;2023-07-13T10:11:10;24.30;81.80
11474;DHT22;5793;52.238;13.438;2023-07-13T10:13:42;25.40;82.00
11474;DHT22;5793;52.238;13.438;2023-07-13T10:16:13;27.20;76.60
11474;DHT22;5793;52.238;13.438;2023-07-13T10:18:49;27.30;77.60
11474;DHT22;5793;52.238;13.438;2023-07-13T10:21:20;27.60;77.20
11474;DHT22;5793;52.238;13.438;2023-07-13T10:23:54;27.00;74.80
11474;DHT22;5793;52.238;13.438;2023-07-13T10:26:26;26.50;75.60
11474;DHT22;5793;52.238;13.438;2023-07-13T10:28:57;26.00;77.80
11474;DHT22;5793;52.238;13.438;2023-07-13T10:31:28;25.80;76.50
11474;DHT22;5793;52.238;13.438;2023-07-13T10:33:57;25.70;76.00
11474;DHT22;5793;52.238;13.438;2023-07-13T10:36:34;26.30;75.40
11474;DHT22;5793;52.238;13.438;2023-07-13T10:39:13;29.50;67.10
11474;DHT22;5793;52.238;13.438;2023-07-13T10:41:44;33.10;60.70
11474;DHT22;5793;52.238;13.438;2023-07-13T10:44:19;34.60;55.50
11474;DHT22;5793;52.238;13.438;2023-07-13T10:46:50;36.20;55.90
11474;DHT22;5793;52.238;13.438;2023-07-13T10:49:18;37.70;52.10
11474;DHT22;5793;52.238;13.438;2023-07-13T10:51:46;35.00;53.20
11474;DHT22;5793;52.238;13.438;2023-07-13T10:54:20;32.00;57.00
11474;DHT22;5793;52.238;13.438;2023-07-13T10:56:51;30.40;58.80
11474;DHT22;5793;52.238;13.438;2023-07-13T10:59:25;28.70;62.00
11474;DHT22;5793;52.238;13.438;2023-07-13T11:02:04;27.50;64.80
11474;DHT22;5793;52.238;13.438;2023-07-13T11:04:41;27.60;64.30
11474;DHT22;5793;52.238;13.438;2023-07-13T11:07:18;30.50;58.90
11474;DHT22;5793;52.238;13.438;2023-07-13T11:09:50;33.40;55.90
11474;DHT22;5793;52.238;13.438;2023-07-13T11:12:28;35.20;53.30
11474;DHT22;5793;52.238;13.438;2023-07-13T11:15:07;36.60;50.60
11474;DHT22;5793;52.238;13.438;2023-07-13T11:17:48;36.20;50.00
11474;DHT22;5793;52.238;13.438;2023-07-13T11:20:31;34.30;52.10
11474;DHT22;5793;52.238;13.438;2023-07-13T11:23:15;34.30;52.70
11474;DHT22;5793;52.238;13.438;2023-07-13T11:25:45;34.40;53.20
11474;DHT22;5793;52.238;13.438;2023-07-13T11:28:17;34.40;53.80
11474;DHT22;5793;52.238;13.438;2023-07-13T11:30:48;33.90;56.00
11474;DHT22;5793;52.238;13.438;2023-07-13T11:33:20;32.40;54.60
11474;DHT22;5793;52.238;13.438;2023-07-13T11:35:53;31.10;57.60
11474;DHT22;5793;52.238;13.438;2023-07-13T11:38:30;30.20;58.80
11474;DHT22;5793;52.238;13.438;2023-07-13T11:41:02;29.80;57.80
11474;DHT22;5793;52.238;13.438;2023-07-13T11:43:31;29.40;58.00
11474;DHT22;5793;52.238;13.438;2023-07-13T11:46:15;28.70;59.50
11474;DHT22;5793;52.238;13.438;2023-07-13T11:48:46;28.60;59.80
11474;DHT22;5793;52.238;13.438;2023-07-13T11:51:19;28.40;62.80
11474;DHT22;5793;52.238;13.438;2023-07-13T11:53:50;28.00;60.90
11474;DHT22;5793;52.238;13.438;2023-07-13T11:56:22;27.70;61.30
11474;DHT22;5793;52.238;13.438;2023-07-13T11:58:54;27.10;60.40
11474;DHT22;5793;52.238;13.438;2023-07-13T12:01:24;26.40;61.40
11474;DHT22;5793;52.238;13.438;2023-07-13T12:03:54;26.70;61.90
11474;DHT22;5793;52.238;13.438;2023-07-13T12:06:27;27.60;62.00
11474;DHT22;5793;52.238;13.438;2023-07-13T12:08:59;28.10;62.70
11474;DHT22;5793;52.238;13.438;2023-07-13T12:11:27;28.50;60.20
11474;DHT22;5793;52.238;13.438;2023-07-13T12:13:56;28.70;60.40
11474;DHT22;5793;52.238;13.438;2023-07-13T12:16:28;28.50;60.90
11474;DHT22;5793;52.238;13.438;2023-07-13T12:18:59;28.30;60.10
11474;DHT22;5793;52.238;13.438;2023-07-13T12:21:31;28.50;61.10
11474;DHT22;5793;52.238;13.438;2023-07-13T12:24:00;28.60;59.80
11474;DHT22;5793;52.238;13.438;2023-07-13T12:26:29;28.50;61.10
11474;DHT22;5793;52.238;13.438;2023-07-13T12:28:59;27.80;59.70
11474;DHT22;5793;52.238;13.438;2023-07-13T12:31:35;27.40;60.00
11474;DHT22;5793;52.238;13.438;2023-07-13T12:34:07;27.00;62.60
11474;DHT22;5793;52.238;13.438;2023-07-13T12:36:40;26.80;61.90
11474;DHT22;5793;52.238;13.438;2023-07-13T12:39:14;26.80;61.90
11474;DHT22;5793;52.238;13.438;2023-07-13T12:41:43;26.80;61.30
11474;DHT22;5793;52.238;13.438;2023-07-13T12:44:13;26.70;61.70
11474;DHT22;5793;52.238;13.438;2023-07-13T12:46:55;26.50;63.30
11474;DHT22;5793;52.238;13.438;2023-07-13T12:49:27;26.60;63.70
11474;DHT22;5793;52.238;13.438;2023-07-13T12:51:57;26.80;62.40
11474;DHT22;5793;52.238;13.438;2023-07-13T12:54:27;26.90;62.30
11474;DHT22;5793;52.238;13.438;2023-07-13T12:56:57;26.90;62.00
11474;DHT22;5793;52.238;13.438;2023-07-13T12:59:30;27.00;63.80
11474;DHT22;5793;52.238;13.438;2023-07-13T13:01:59;27.30;61.60
11474;DHT22;5793;52.238;13.438;2023-07-13T13:04:30;27.30;62.30
11474;DHT22;5793;52.238;13.438;2023-07-13T13:07:03;27.40;63.30
11474;DHT22;5793;52.238;13.438;2023-07-13T13:09:31;27.40;61.80
11474;DHT22;5793;52.238;13.438;2023-07-13T13:12:00;27.20;62.40
11474;DHT22;5793;52.238;13.438;2023-07-13T13:14:28;27.30;63.40
11474;DHT22;5793;52.238;13.438;2023-07-13T13:16:55;27.10;60.10
11474;DHT22;5793;52.238;13.438;2023-07-13T13:19:25;27.00;63.30
11474;DHT22;5793;52.238;13.438;2023-07-13T13:21:55;26.90;62.90
11474;DHT22;5793;52.238;13.438;2023-07-13T13:24:26;26.90;62.50
11474;DHT22;5793;52.238;13.438;2023-07-13T13:26:55;26.90;62.20
11474;DHT22;5793;52.238;13.438;2023-07-13T13:29:25;26.90;63.30
11474;DHT22;5793;52.238;13.438;2023-07-13T13:31:53;26.90;62.00
11474;DHT22;5793;52.238;13.438;2023-07-13T13:34:23;27.00;63.90
11474;DHT22;5793;52.238;13.438;2023-07-13T13:36:52;27.10;63.10
11474;DHT22;5793;52.238;13.438;2023-07-13T13:39:33;27.20;61.50
11474;DHT22;5793;52.238;13.438;2023-07-13T13:42:01;27.20;62.00
11474;DHT22;5793;52.238;13.438;2023-07-13T13:44:29;27.00;61.00
11474;DHT22;5793;52.238;13.438;2023-07-13T13:46:57;26.70;60.50
11474;DHT22;5793;52.238;13.438;2023-07-13T13:49:26;26.60;62.90
11474;DHT22;5793;52.238;13.438;2023-07-13T13:51:55;26.60;62.80
11474;DHT22;5793;52.238;13.438;2023-07-13T13:54:24;26.60;62.00
11474;DHT22;5793;52.238;13.438;2023-07-13T13:56:55;26.60;62.60
11474;DHT22;5793;52.238;13.438;2023-07-13T13:59:26;26.60;64.30
11474;DHT22;5793;52.238;13.438;2023-07-13T14:01:54;26.70;63.20
11474;DHT22;5793;52.238;13.438;2023-07-13T14:04:22;26.80;61.50
11474;DHT22;5793;52.238;13.438;2023-07-13T14:06:50;27.00;61.50
11474;DHT22;5793;52.238;13.438;2023-07-13T14:09:19;27.10;61.60
11474;DHT22;5793;52.238;13.438;2023-07-13T14:11:49;27.00;60.60
11474;DHT22;5793;52.238;13.438;2023-07-13T14:14:22;26.80;62.50
11474;DHT22;5793;52.238;13.438;2023-07-13T14:16:52;26.70;64.30
11474;DHT22;5793;52.238;13.438;2023-07-13T14:19:22;26.70;62.90
11474;DHT22;5793;52.238;13.438;2023-07-13T14:21:50;26.60;63.50
11474;DHT22;5793;52.238;13.438;2023-07-13T14:24:20;26.70;63.90
11474;DHT22;5793;52.238;13.438;2023-07-13T14:26:48;26.60;63.60
11474;DHT22;5793;52.238;13.438;2023-07-13T14:29:19;26.60;63.60
11474;DHT22;5793;52.238;13.438;2023-07-13T14:31:50;26.70;62.60
11474;DHT22;5793;52.238;13.438;2023-07-13T14:34:19;26.60;62.90
11474;DHT22;5793;52.238;13.438;2023-07-13T14:36:48;26.70;62.10
11474;DHT22;5793;52.238;13.438;2023-07-13T14:39:18;26.70;63.80
11474;DHT22;5793;52.238;13.438;2023-07-13T14:41:50;26.80;63.50
11474;DHT22;5793;52.238;13.438;2023-07-13T14:44:21;26.80;61.50
11474;DHT22;5793;52.238;13.438;2023-07-13T14:46:50;26.70;61.90
11474;DHT22;5793;52.238;13.438;2023-07-13T14:49:24;26.70;62.60
11474;DHT22;5793;52.238;13.438;2023-07-13T14:51:55;26.40;62.60
11474;DHT22;5793;52.238;13.438;2023-07-13T14:54:24;26.40;62.90
11474;DHT22;5793;52.238;13.438;2023-07-13T14:56:52;26.40;62.70
11474;DHT22;5793;52.238;13.438;2023-07-13T14:59:21;26.50;61.80
11474;DHT22;5793;52.238;13.438;2023-07-13T15:01:50;26.50;62.50
11474;DHT22;5793;52.238;13.438;2023-07-13T15:04:18;26.50;60.90
11474;DHT22;5793;52.238;13.438;2023-07-13T15:06:54;26.50;61.80
11474;DHT22;5793;52.238;13.438;2023-07-13T15:09:23;26.40;61.60
11474;DHT22;5793;52.238;13.438;2023-07-13T15:11:52;26.30;61.10
11474;DHT22;5793;52.238;13.438;2023-07-13T15:14:22;26.30;62.10
11474;DHT22;5793;52.238;13.438;2023-07-13T15:16:53;26.30;59.90
11474;DHT22;5793;52.238;13.438;2023-07-13T15:19:21;26.10;61.30
11474;DHT22;5793;52.238;13.438;2023-07-13T15:21:52;26.20;61.90
11474;DHT22;5793;52.238;13.438;2023-07-13T15:24:21;26.20;60.40
11474;DHT22;5793;52.238;13.438;2023-07-13T15:26:49;26.20;62.00
11474;DHT22;5793;52.238;13.438;2023-07-13T15:29:17;26.20;62.00
11474;DHT22;5793;52.238;13.438;2023-07-13T15:31:46;26.20;60.00
11474;DHT22;5793;52.238;13.438;2023-07-13T15:34:16;26.20;62.00
11474;DHT22;5793;52.238;13.438;2023-07-13T15:36:46;26.30;61.80
11474;DHT22;5793;52.238;13.438;2023-07-13T15:39:16;26.30;59.70
11474;DHT22;5793;52.238;13.438;2023-07-13T15:41:44;26.30;61.70
11474;DHT22;5793;52.238;13.438;2023-07-13T15:44:25;26.30;60.10
11474;DHT22;5793;52.238;13.438;2023-07-13T15:46:55;26.20;61.00